createdAt,value
2022-09-13T00:00:17.192Z,3.50
2022-09-13T00:05:18.754Z,3.15
2022-09-13T00:10:20.888Z,3.20
2022-09-13T00:15:22.488Z,3.55
2022-09-13T00:20:24.131Z,3.20
2022-09-13T00:25:25.649Z,3.30
2022-09-13T00:30:27.201Z,3.25
2022-09-13T00:35:28.962Z,3.45
2022-09-13T00:40:30.694Z,3.30
2022-09-13T00:45:32.358Z,3.55
2022-09-13T00:50:48.132Z,3.17
2022-09-13T00:55:51.650Z,3.38
2022-09-13T01:00:53.785Z,3.00
2022-09-13T01:06:02.580Z,3.85
2022-09-13T01:11:06.538Z,3.67
2022-09-13T01:16:08.392Z,3.83
2022-09-13T01:21:28.496Z,3.30
2022-09-13T01:27:04.272Z,3.10
2022-09-13T01:32:29.042Z,3.33
2022-09-13T01:37:39.769Z,3.80
2022-09-13T01:42:54.649Z,3.47
2022-09-13T01:48:05.920Z,3.03
2022-09-13T01:53:18.395Z,3.20
2022-09-13T01:58:28.852Z,3.28
2022-09-13T02:03:48.618Z,3.38
2022-09-13T02:08:54.360Z,3.30
2022-09-13T02:14:05.924Z,3.00
2022-09-13T02:19:13.627Z,3.10
2022-09-13T02:24:21.060Z,3.53
2022-09-13T02:29:24.683Z,2.95
2022-09-13T02:34:34.752Z,3.22
2022-09-13T02:39:38.606Z,3.60
2022-09-13T02:44:45.926Z,3.10
2022-09-13T02:50:25.826Z,3.45
2022-09-13T02:55:36.500Z,3.17
2022-09-13T03:00:39.128Z,3.50
2022-09-13T03:05:40.922Z,3.63
2022-09-13T03:10:55.666Z,3.30
2022-09-13T03:16:03.122Z,3.30
2022-09-13T03:21:16.081Z,3.58
2022-09-13T03:26:41.215Z,3.50
2022-09-13T03:31:50.674Z,3.85
2022-09-13T03:36:56.721Z,3.25
2022-09-13T03:42:01.150Z,3.58
2022-09-13T03:47:04.126Z,3.53
2022-09-13T03:52:06.302Z,4.00
2022-09-13T03:57:09.783Z,3.60
2022-09-13T04:02:12.018Z,3.47
2022-09-13T04:07:18.053Z,3.63
2022-09-13T04:12:19.728Z,3.50
2022-09-13T04:17:21.230Z,3.47
2022-09-13T04:22:22.739Z,3.75
2022-09-13T04:27:25.686Z,3.45
2022-09-13T04:32:27.203Z,3.88
2022-09-13T04:37:28.693Z,3.72
2022-09-13T04:42:30.223Z,3.65
2022-09-13T04:47:31.796Z,3.80
2022-09-13T04:52:33.642Z,3.80
2022-09-13T04:57:35.165Z,3.63
2022-09-13T05:02:36.977Z,3.65
2022-09-13T05:07:39.319Z,3.92
2022-09-13T05:12:40.917Z,4.50
2022-09-13T05:17:42.618Z,3.85
2022-09-13T05:22:44.143Z,4.32
2022-09-13T05:27:46.026Z,4.15
2022-09-13T05:32:47.566Z,4.20
2022-09-13T05:37:49.576Z,4.43
2022-09-13T05:42:53.179Z,3.83
2022-09-13T05:47:54.708Z,4.10
2022-09-13T05:52:56.781Z,3.95
2022-09-13T05:57:58.349Z,4.32
2022-09-13T06:03:00.762Z,4.00
2022-09-13T06:08:02.606Z,3.60
2022-09-13T06:13:04.116Z,4.00
2022-09-13T06:18:06.831Z,4.15
2022-09-13T06:23:08.376Z,4.50
2022-09-13T06:28:10.213Z,3.80
2022-09-13T06:33:11.751Z,4.20
2022-09-13T06:38:13.309Z,4.10
2022-09-13T06:43:15.770Z,3.72
2022-09-13T06:48:18.367Z,4.38
2022-09-13T06:53:19.913Z,4.10
2022-09-13T06:58:21.544Z,4.03
2022-09-13T07:03:23.046Z,4.03
2022-09-13T07:08:24.624Z,4.10
2022-09-13T07:13:26.162Z,4.03
2022-09-13T07:18:27.724Z,3.88
2022-09-13T07:23:30.863Z,4.05
2022-09-13T07:28:44.036Z,3.80
2022-09-13T07:33:45.565Z,3.60
2022-09-13T07:38:48.229Z,4.18
2022-09-13T07:43:49.938Z,4.13
2022-09-13T07:48:56.649Z,4.25
2022-09-13T07:54:00.158Z,3.80
2022-09-13T07:59:04.396Z,4.30
2022-09-13T08:04:08.061Z,4.43
2022-09-13T08:09:10.769Z,4.75
2022-09-13T08:14:15.355Z,4.20
2022-09-13T08:19:18.597Z,4.50
2022-09-13T08:24:21.746Z,4.90
2022-09-13T08:29:25.204Z,5.00
2022-09-13T08:34:27.283Z,4.95
2022-09-13T08:39:30.422Z,4.80
2022-09-13T08:44:38.188Z,4.68
2022-09-13T08:49:44.386Z,4.80
2022-09-13T08:54:45.885Z,4.88
2022-09-13T09:00:04.874Z,4.97
2022-09-13T09:05:19.461Z,5.03
2022-09-13T09:10:33.115Z,4.97
2022-09-13T09:15:42.446Z,4.68
2022-09-13T09:20:53.164Z,4.88
2022-09-13T09:25:58.260Z,5.20
2022-09-13T09:31:06.205Z,5.18
2022-09-13T09:36:40.904Z,5.00
2022-09-13T09:41:44.109Z,4.72
2022-09-13T09:46:52.170Z,5.55
2022-09-13T09:51:54.516Z,5.70
2022-09-13T09:56:56.204Z,4.85
2022-09-13T10:01:58.606Z,4.65
2022-09-13T10:07:25.048Z,5.00
2022-09-13T10:12:34.109Z,5.32
2022-09-13T10:17:35.725Z,5.13
2022-09-13T10:22:38.019Z,3.72
2022-09-13T10:27:45.455Z,4.57
2022-09-13T10:32:55.567Z,4.25
2022-09-13T10:37:57.180Z,4.25
2022-09-13T10:43:00.363Z,4.72
2022-09-13T10:48:11.071Z,3.70
2022-09-13T10:53:37.942Z,3.88
2022-09-13T10:58:39.515Z,4.00
2022-09-13T11:04:03.765Z,3.50
2022-09-13T11:09:16.663Z,3.60
2022-09-13T11:14:24.120Z,3.50
2022-09-13T11:19:52.094Z,2.92
2022-09-13T11:25:01.497Z,2.28
2022-09-13T11:30:20.158Z,2.28
2022-09-13T11:35:47.289Z,2.42
2022-09-13T11:41:12.620Z,2.40
2022-09-13T11:46:22.891Z,2.47
2022-09-13T11:51:42.558Z,2.55
2022-09-13T11:56:50.358Z,2.40
2022-09-13T12:01:56.246Z,2.40
2022-09-13T12:07:01.528Z,2.30
2022-09-13T12:12:13.609Z,2.88
2022-09-13T12:17:45.745Z,2.70
2022-09-13T12:22:47.928Z,2.70
2022-09-13T12:28:00.525Z,2.63
2022-09-13T12:33:05.904Z,2.63
2022-09-13T12:38:18.095Z,2.05
2022-09-13T12:44:02.511Z,2.10
2022-09-13T12:49:34.977Z,2.20
2022-09-13T12:54:55.273Z,2.30
2022-09-13T13:00:33.312Z,2.25
2022-09-13T13:05:42.025Z,2.45
2022-09-13T13:10:43.752Z,2.00
2022-09-13T13:15:49.791Z,2.03
2022-09-13T13:20:51.578Z,2.20
2022-09-13T13:26:01.365Z,2.00
2022-09-13T13:31:03.575Z,1.92
2022-09-13T13:36:22.338Z,2.00
2022-09-13T13:41:39.522Z,1.88
2022-09-13T13:46:41.558Z,2.00
2022-09-13T13:51:43.099Z,1.83
2022-09-13T13:56:49.218Z,1.67
2022-09-13T14:01:55.681Z,2.10
2022-09-13T14:07:06.016Z,1.90
2022-09-13T14:12:07.970Z,1.88
2022-09-13T14:17:40.694Z,2.10
2022-09-13T14:22:42.266Z,2.00
2022-09-13T14:27:44.272Z,2.30
2022-09-13T14:32:47.330Z,1.90
2022-09-13T14:37:48.942Z,1.90
2022-09-13T14:42:53.821Z,1.83
2022-09-13T14:47:58.183Z,1.70
2022-09-13T14:53:05.585Z,1.75
2022-09-13T14:58:15.959Z,2.10
2022-09-13T15:03:18.627Z,2.20
2022-09-13T15:08:35.341Z,2.08
2022-09-13T15:13:38.431Z,1.90
2022-09-13T15:18:39.973Z,1.80
2022-09-13T15:23:43.332Z,2.05
2022-09-13T15:28:44.809Z,1.80
2022-09-13T15:33:49.344Z,1.92
2022-09-13T15:39:09.559Z,2.05
2022-09-13T15:44:11.091Z,2.05
2022-09-13T15:49:16.589Z,2.28
2022-09-13T15:54:18.273Z,1.98
2022-09-13T15:59:21.193Z,1.90
2022-09-13T16:04:23.006Z,2.20
2022-09-13T16:09:25.532Z,2.08
2022-09-13T16:14:27.110Z,2.25
2022-09-13T16:19:28.758Z,2.28
2022-09-13T16:24:31.159Z,2.70
2022-09-13T16:29:32.759Z,2.40
2022-09-13T16:34:34.337Z,2.60
2022-09-13T16:39:35.874Z,1.98
2022-09-13T16:44:37.453Z,2.67
2022-09-13T16:49:39.061Z,2.25
2022-09-13T16:54:40.694Z,1.67
2022-09-13T16:59:42.391Z,1.70
2022-09-13T17:04:44.046Z,2.30
2022-09-13T17:09:45.826Z,2.00
2022-09-13T17:14:47.575Z,1.92
2022-09-13T17:19:49.322Z,2.00
2022-09-13T17:24:50.859Z,1.98
2022-09-13T17:29:52.455Z,3.72
2022-09-13T17:34:54.030Z,2.08
2022-09-13T17:39:55.960Z,2.47
2022-09-13T17:44:58.632Z,2.28
2022-09-13T17:50:00.170Z,2.10
2022-09-13T17:55:02.427Z,2.05
2022-09-13T18:00:06.798Z,2.15
2022-09-13T18:05:12.955Z,2.10
2022-09-13T18:10:32.562Z,2.25
2022-09-13T18:15:37.174Z,8.27
2022-09-13T18:20:40.755Z,13.18
2022-09-13T18:25:42.692Z,3.42
2022-09-13T18:30:55.398Z,3.33
2022-09-13T18:36:02.480Z,2.70
2022-09-13T18:41:12.142Z,2.65
2022-09-13T18:46:18.468Z,2.88
2022-09-13T18:51:22.229Z,2.90
2022-09-13T18:56:24.716Z,2.67
2022-09-13T19:01:28.632Z,2.55
2022-09-13T19:06:32.671Z,3.15
2022-09-13T19:11:52.583Z,3.05
2022-09-13T19:16:56.497Z,3.00
2022-09-13T19:21:58.146Z,2.78
2022-09-13T19:27:01.617Z,2.83
2022-09-13T19:32:03.241Z,2.97
2022-09-13T19:37:04.851Z,2.67
2022-09-13T19:42:06.500Z,3.25
2022-09-13T19:47:53.251Z,2.70
2022-09-13T19:52:31.051Z,2.53
2022-09-13T19:57:32.570Z,2.55
2022-09-13T20:02:34.096Z,2.50
2022-09-13T20:07:35.606Z,2.92
2022-09-13T20:12:37.727Z,2.70
2022-09-13T20:17:39.361Z,2.80
2022-09-13T20:22:40.900Z,2.83
2022-09-13T20:27:42.442Z,2.83
2022-09-13T20:32:44.055Z,2.90
2022-09-13T20:37:46.204Z,2.97
2022-09-13T20:42:49.218Z,3.05
2022-09-13T20:47:50.716Z,3.33
2022-09-13T20:52:52.764Z,3.05
2022-09-13T20:57:54.817Z,2.90
2022-09-13T21:02:56.429Z,2.97
2022-09-13T21:08:21.151Z,3.80
2022-09-13T21:13:22.741Z,3.88
2022-09-13T21:18:25.045Z,3.30
2022-09-13T21:23:27.163Z,3.47
2022-09-13T21:28:29.061Z,3.30
2022-09-13T21:33:30.624Z,3.83
2022-09-13T21:38:34.219Z,3.40
2022-09-13T21:43:35.875Z,3.33
2022-09-13T21:48:37.500Z,3.38
2022-09-13T21:53:39.134Z,3.53
2022-09-13T21:58:41.297Z,4.00
2022-09-13T22:03:44.190Z,3.50
2022-09-13T22:08:51.016Z,3.50
2022-09-13T22:13:53.718Z,3.53
2022-09-13T22:19:03.296Z,3.55
2022-09-13T22:24:09.560Z,4.18
2022-09-13T22:29:11.607Z,4.47
2022-09-13T22:34:18.391Z,4.28
2022-09-13T22:39:19.924Z,3.58
2022-09-13T22:44:21.472Z,3.53
2022-09-13T22:49:23.086Z,3.80
2022-09-13T22:54:24.702Z,3.90
2022-09-13T22:59:26.344Z,4.07
2022-09-13T23:04:27.962Z,3.20
2022-09-13T23:09:29.505Z,3.53
2022-09-13T23:14:31.202Z,3.88
2022-09-13T23:19:32.760Z,3.90
2022-09-13T23:24:34.313Z,4.03
2022-09-13T23:29:36.020Z,3.60
2022-09-13T23:34:37.556Z,4.15
2022-09-13T23:39:39.326Z,4.07
2022-09-13T23:44:40.842Z,3.70
2022-09-13T23:49:43.613Z,3.83
2022-09-13T23:54:45.783Z,3.83
2022-09-13T23:59:47.281Z,3.55
